Time;durP1;ratioP1;P1;durP2;ratioP2;P2;SDS_P1;SDS_P2;PMS_P1;PMS_P2;Temp;Humidity;BMP_temperature;BMP_pressure;BME280_temperature;BME280_humidity;BME280_pressure;Samples;Min_cycle;Max_cycle;Signal;HPM_P1;HPM_P2
2023/06/06 00:01:18;;;;;;;3.87;2.20;;;16.20;95.70;;;;;;5030502;28;20438;-71
2023/06/06 00:03:48;;;;;;;5.30;2.40;;;16.10;95.80;;;;;;5031176;28;20168;-69
2023/06/06 00:06:15;;;;;;;3.43;1.83;;;16.10;96.00;;;;;;5029966;28;20770;-69
2023/06/06 00:08:42;;;;;;;2.10;1.80;;;16.10;96.20;;;;;;5029516;28;20491;-70
2023/06/06 00:11:09;;;;;;;2.27;2.07;;;16.00;96.30;;;;;;5029282;28;20418;-69
2023/06/06 00:13:35;;;;;;;6.80;2.10;;;16.00;96.50;;;;;;5024502;28;20423;-70
2023/06/06 00:16:02;;;;;;;3.90;2.10;;;15.90;96.60;;;;;;5021973;28;20426;-70
2023/06/06 00:18:28;;;;;;;2.33;2.10;;;15.90;96.70;;;;;;5029534;28;20433;-69
2023/06/06 00:20:54;;;;;;;2.00;1.73;;;15.90;96.90;;;;;;5029247;28;20415;-70
2023/06/06 00:23:21;;;;;;;3.77;1.90;;;15.90;97.00;;;;;;5029270;28;20619;-70
2023/06/06 00:25:49;;;;;;;3.30;2.13;;;15.90;97.10;;;;;;5029280;28;20407;-70
2023/06/06 00:28:15;;;;;;;2.30;2.10;;;15.80;97.20;;;;;;5029151;28;20951;-72
2023/06/06 00:30:41;;;;;;;3.07;2.10;;;15.80;97.40;;;;;;5029680;28;20449;-70
2023/06/06 00:33:06;;;;;;;2.30;1.93;;;15.70;97.50;;;;;;5029451;28;20771;-69
2023/06/06 00:35:32;;;;;;;4.00;2.73;;;15.70;97.80;;;;;;5051788;22;20277;-68
2023/06/06 00:37:58;;;;;;;2.43;1.80;;;15.70;97.80;;;;;;5030743;28;20230;-68
2023/06/06 00:40:23;;;;;;;2.37;1.97;;;15.60;97.90;;;;;;5030507;28;20171;-68
2023/06/06 00:42:49;;;;;;;2.13;2.03;;;15.60;98.10;;;;;;5031194;28;20176;-69
2023/06/06 00:45:15;;;;;;;3.23;2.40;;;15.60;98.20;;;;;;5031133;28;20192;-69
2023/06/06 00:47:42;;;;;;;4.23;2.10;;;15.50;98.30;;;;;;5031379;28;20508;-69
2023/06/06 00:50:12;;;;;;;2.60;2.07;;;15.50;98.40;;;;;;5032708;28;20227;-69
2023/06/06 00:52:38;;;;;;;2.97;2.13;;;15.60;98.40;;;;;;5036081;28;20411;-69
2023/06/06 00:55:05;;;;;;;3.47;1.90;;;15.50;98.60;;;;;;5036098;28;20443;-67
2023/06/06 00:57:31;;;;;;;2.63;1.83;;;15.50;98.80;;;;;;5035979;28;20659;-70
2023/06/06 00:59:58;;;;;;;2.27;2.00;;;15.50;98.80;;;;;;5035259;28;20414;-71
2023/06/06 01:02:24;;;;;;;2.53;2.30;;;15.50;98.80;;;;;;5034534;28;20182;-69
2023/06/06 01:04:50;;;;;;;2.27;2.00;;;15.50;98.60;;;;;;5034950;28;20429;-69
2023/06/06 01:07:17;;;;;;;6.67;2.20;;;15.50;98.70;;;;;;5024771;28;20818;-70
2023/06/06 01:09:44;;;;;;;5.80;2.70;;;15.50;98.70;;;;;;5034341;28;20987;-69
2023/06/06 01:12:31;;;;;;;2.60;2.40;;;15.40;98.70;;;;;;5034275;28;20407;-70
2023/06/06 01:15:16;;;;;;;2.43;2.17;;;15.50;98.80;;;;;;5027839;28;20458;-70
2023/06/06 01:17:42;;;;;;;3.93;2.40;;;15.50;98.70;;;;;;5031560;28;20420;-70
2023/06/06 01:20:11;;;;;;;3.03;2.20;;;15.50;98.60;;;;;;5034728;28;20407;-70
2023/06/06 01:22:37;;;;;;;4.33;2.13;;;15.40;98.50;;;;;;5032724;28;20414;-70
2023/06/06 01:25:03;;;;;;;2.27;2.07;;;15.40;98.60;;;;;;5037862;28;20958;-70
2023/06/06 01:27:33;;;;;;;2.60;2.40;;;15.50;98.50;;;;;;5035272;28;20454;-69
2023/06/06 01:29:59;;;;;;;5.30;2.20;;;15.50;98.50;;;;;;5032388;28;20958;-70
2023/06/06 01:33:01;;;;;;;5.10;2.67;;;15.50;98.80;;;;;;5034734;28;20414;-69
2023/06/06 01:35:26;;;;;;;3.33;1.93;;;15.40;98.50;;;;;;5032132;28;20460;-69
2023/06/06 01:38:31;;;;;;;2.47;2.27;;;15.50;98.50;;;;;;5033228;28;20852;-71
2023/06/06 01:41:00;;;;;;;3.83;2.27;;;15.40;98.40;;;;;;5013480;28;20176;-69
2023/06/06 01:43:28;;;;;;;2.27;2.07;;;15.40;98.40;;;;;;5033376;28;20415;-69
2023/06/06 01:45:55;;;;;;;4.40;1.83;;;15.40;98.30;;;;;;5033432;28;20427;-70
2023/06/06 01:48:21;;;;;;;3.63;2.37;;;15.30;98.30;;;;;;5033043;28;20450;-70
2023/06/06 01:50:47;;;;;;;3.30;2.47;;;15.30;98.40;;;;;;5026023;28;20779;-70
2023/06/06 01:53:13;;;;;;;5.73;2.83;;;15.30;98.60;;;;;;5029395;28;20403;-70
2023/06/06 01:55:39;;;;;;;3.97;3.07;;;15.20;98.70;;;;;;5033073;28;20444;-69
2023/06/06 01:58:05;;;;;;;3.50;2.27;;;15.20;98.90;;;;;;5032872;28;20176;-68
2023/06/06 02:00:30;;;;;;;2.40;2.20;;;15.10;98.90;;;;;;5033184;28;20476;-69
2023/06/06 02:02:56;;;;;;;2.57;1.87;;;15.10;99.00;;;;;;5031779;28;20410;-69
2023/06/06 02:05:22;;;;;;;2.57;2.37;;;15.00;99.00;;;;;;5031483;28;20688;-69
2023/06/06 02:07:49;;;;;;;2.33;2.13;;;15.00;99.10;;;;;;5033150;28;20446;-70
2023/06/06 02:10:15;;;;;;;2.63;2.00;;;15.00;99.20;;;;;;5032966;28;20773;-69
2023/06/06 02:12:41;;;;;;;2.77;2.17;;;15.00;99.20;;;;;;5033093;28;20886;-70
2023/06/06 02:15:09;;;;;;;4.13;2.60;;;15.00;99.30;;;;;;5029864;28;20459;-71
2023/06/06 02:17:35;;;;;;;2.83;2.17;;;14.90;99.30;;;;;;5031665;28;20418;-71
2023/06/06 02:20:01;;;;;;;4.43;2.40;;;14.90;99.30;;;;;;5031659;28;20426;-70
2023/06/06 02:22:26;;;;;;;2.13;1.93;;;14.90;99.30;;;;;;5032657;28;20414;-69
2023/06/06 02:24:52;;;;;;;3.10;2.43;;;14.90;99.40;;;;;;5032592;28;20196;-69
2023/06/06 02:27:19;;;;;;;3.53;2.00;;;14.90;99.80;;;;;;5032679;28;20203;-69
2023/06/06 02:29:45;;;;;;;3.10;1.90;;;14.90;99.50;;;;;;5024827;28;20465;-68
2023/06/06 02:32:11;;;;;;;3.83;1.90;;;14.90;99.50;;;;;;5032991;28;20494;-70
2023/06/06 02:34:37;;;;;;;7.97;2.73;;;14.90;99.50;;;;;;5032597;28;20513;-69
2023/06/06 02:37:06;;;;;;;3.17;2.00;;;14.90;99.60;;;;;;5032878;28;20875;-70
2023/06/06 02:39:33;;;;;;;5.00;2.63;;;14.90;99.60;;;;;;5032782;28;20579;-70
2023/06/06 02:41:58;;;;;;;3.67;2.10;;;14.90;99.70;;;;;;5033032;28;20414;-69
2023/06/06 02:44:26;;;;;;;2.63;2.30;;;14.90;99.60;;;;;;5029756;28;20480;-69
2023/06/06 02:46:52;;;;;;;4.40;2.47;;;14.90;99.60;;;;;;5032660;28;20183;-70
2023/06/06 02:49:17;;;;;;;3.57;2.40;;;14.90;99.60;;;;;;5032317;28;20498;-70
2023/06/06 02:51:43;;;;;;;3.57;2.13;;;14.90;99.60;;;;;;5032443;28;20840;-70
2023/06/06 02:54:09;;;;;;;3.17;2.03;;;14.90;99.60;;;;;;5031814;28;20193;-70
2023/06/06 02:56:34;;;;;;;2.87;2.50;;;14.90;99.60;;;;;;5032253;28;20597;-70
2023/06/06 02:59:00;;;;;;;2.60;2.07;;;14.90;99.70;;;;;;5031993;28;20174;-69
2023/06/06 03:01:25;;;;;;;2.50;1.97;;;14.90;99.80;;;;;;5032243;28;20251;-69
2023/06/06 03:03:51;;;;;;;10.77;2.10;;;14.90;99.90;;;;;;5028775;28;20202;-70
2023/06/06 03:06:18;;;;;;;2.77;2.37;;;14.90;99.90;;;;;;5032406;28;20171;-70
2023/06/06 03:08:44;;;;;;;2.87;2.33;;;14.90;99.90;;;;;;5031890;28;20200;-70
2023/06/06 03:11:10;;;;;;;3.07;1.93;;;14.80;99.90;;;;;;5032446;28;20399;-70
2023/06/06 03:13:36;;;;;;;2.40;1.83;;;14.80;99.90;;;;;;5031384;28;20580;-69
2023/06/06 03:16:02;;;;;;;3.30;2.10;;;14.90;99.90;;;;;;5031707;28;20184;-70
2023/06/06 03:18:28;;;;;;;3.20;2.00;;;14.90;99.90;;;;;;5031432;28;20176;-69
2023/06/06 03:20:53;;;;;;;2.77;2.40;;;14.90;99.90;;;;;;5031782;28;20172;-70
2023/06/06 03:23:20;;;;;;;3.80;2.57;;;14.90;99.90;;;;;;5031371;28;20948;-69
2023/06/06 03:25:49;;;;;;;2.30;2.10;;;14.90;99.90;;;;;;5029248;28;20192;-70
2023/06/06 03:28:17;;;;;;;2.80;2.13;;;14.90;99.90;;;;;;5031398;28;20446;-69
2023/06/06 03:30:43;;;;;;;3.20;2.90;;;14.90;99.90;;;;;;5031668;28;20410;-69
2023/06/06 03:33:09;;;;;;;3.20;2.63;;;15.00;99.80;;;;;;5031595;28;20438;-69
2023/06/06 03:35:35;;;;;;;3.47;2.53;;;15.00;99.80;;;;;;5031351;28;20530;-69
2023/06/06 03:38:01;;;;;;;5.17;2.43;;;15.00;99.70;;;;;;5031368;28;20175;-69
2023/06/06 03:40:27;;;;;;;3.87;2.27;;;15.00;99.80;;;;;;5031354;28;20496;-70
2023/06/06 03:42:53;;;;;;;2.20;1.97;;;15.10;99.70;;;;;;5031519;28;20464;-69
2023/06/06 03:45:22;;;;;;;3.20;2.37;;;15.10;99.70;;;;;;5031288;28;20438;-70
2023/06/06 03:47:49;;;;;;;3.20;2.67;;;15.10;99.80;;;;;;5023729;28;20282;-70
2023/06/06 03:50:15;;;;;;;3.93;2.43;;;15.10;99.80;;;;;;5031191;28;20423;-69
2023/06/06 03:52:40;;;;;;;2.57;1.77;;;15.10;99.90;;;;;;5024375;28;20406;-70
2023/06/06 03:55:07;;;;;;;3.80;2.97;;;15.10;99.60;;;;;;5031179;28;20207;-71
2023/06/06 03:57:37;;;;;;;3.53;2.03;;;15.10;99.70;;;;;;5031560;28;20458;-69
2023/06/06 04:00:10;;;;;;;2.80;2.17;;;15.20;99.70;;;;;;5031839;28;20410;-70
2023/06/06 04:02:40;;;;;;;8.23;2.40;;;15.20;99.70;;;;;;5031894;28;20417;-71
2023/06/06 04:05:06;;;;;;;3.10;2.20;;;15.20;99.70;;;;;;5040730;28;20956;-69
2023/06/06 04:07:32;;;;;;;2.83;2.20;;;15.20;99.70;;;;;;5031026;28;20798;-70
2023/06/06 04:09:58;;;;;;;4.10;3.27;;;15.30;99.60;;;;;;5031098;28;20843;-69
2023/06/06 04:12:24;;;;;;;6.50;2.40;;;15.30;99.70;;;;;;5031634;28;20779;-70
2023/06/06 04:14:50;;;;;;;2.73;2.47;;;15.50;99.50;;;;;;5031124;28;20426;-69
2023/06/06 04:17:17;;;;;;;2.90;2.60;;;15.70;99.30;;;;;;5031727;28;20179;-68
2023/06/06 04:19:43;;;;;;;3.10;2.10;;;16.50;98.40;;;;;;5029904;28;20415;-70
2023/06/06 04:22:09;;;;;;;3.13;2.37;;;17.20;97.30;;;;;;5031007;28;20491;-69
2023/06/06 04:24:34;;;;;;;2.93;2.60;;;17.80;96.10;;;;;;5031013;28;20208;-69
2023/06/06 04:27:03;;;;;;;3.17;2.63;;;18.70;94.70;;;;;;5034824;28;20485;-69
2023/06/06 04:29:34;;;;;;;3.63;2.87;;;19.10;93.70;;;;;;5027642;28;20508;-69
2023/06/06 04:32:01;;;;;;;7.00;2.43;;;19.00;93.20;;;;;;5034983;28;20468;-69
2023/06/06 04:34:29;;;;;;;3.10;2.23;;;19.20;92.80;;;;;;5034736;28;20448;-69
2023/06/06 04:37:03;;;;;;;3.80;1.83;;;18.80;93.00;;;;;;5035095;28;20417;-70
2023/06/06 04:39:33;;;;;;;2.40;2.10;;;19.40;92.50;;;;;;5035255;28;20416;-69
2023/06/06 04:42:00;;;;;;;3.07;2.43;;;19.20;91.40;;;;;;5034911;28;20417;-69
2023/06/06 04:44:26;;;;;;;4.30;2.53;;;18.80;92.10;;;;;;5032036;28;20765;-69
2023/06/06 04:47:00;;;;;;;7.10;2.30;;;18.30;92.60;;;;;;5033657;28;20801;-69
2023/06/06 04:49:35;;;;;;;2.43;2.20;;;18.00;93.50;;;;;;5033315;28;20659;-70
2023/06/06 04:52:02;;;;;;;3.37;3.03;;;18.00;93.00;;;;;;5034791;28;20441;-69
2023/06/06 04:54:28;;;;;;;2.40;2.20;;;17.70;93.70;;;;;;5034059;28;20424;-70
2023/06/06 04:56:54;;;;;;;5.23;2.43;;;17.80;94.00;;;;;;5034413;28;20756;-69
2023/06/06 04:59:22;;;;;;;5.80;2.43;;;18.20;93.30;;;;;;5034220;28;20212;-69
2023/06/06 05:01:47;;;;;;;3.43;2.70;;;18.50;93.20;;;;;;5034173;28;20542;-69
2023/06/06 05:04:13;;;;;;;3.10;2.27;;;18.50;92.70;;;;;;5034217;28;20423;-70
2023/06/06 05:06:40;;;;;;;5.90;2.57;;;18.60;92.80;;;;;;5034090;28;20239;-69
2023/06/06 05:09:07;;;;;;;3.53;2.37;;;18.90;92.80;;;;;;5034248;28;20434;-69
2023/06/06 05:11:33;;;;;;;3.73;2.23;;;19.30;92.00;;;;;;5033909;28;20416;-69
2023/06/06 05:13:59;;;;;;;7.33;2.53;;;19.10;92.20;;;;;;5033848;28;20425;-70
2023/06/06 05:16:25;;;;;;;3.03;2.40;;;19.60;91.40;;;;;;5033991;28;20422;-69
2023/06/06 05:18:51;;;;;;;2.83;2.07;;;19.90;91.20;;;;;;5033934;28;20180;-69
2023/06/06 05:21:18;;;;;;;3.30;1.83;;;20.10;90.70;;;;;;5033963;28;20498;-70
2023/06/06 05:23:44;;;;;;;6.10;3.90;;;20.40;89.90;;;;;;5030468;28;20259;-69
2023/06/06 05:26:10;;;;;;;6.93;2.10;;;20.80;89.50;;;;;;5031187;28;20442;-68
2023/06/06 05:28:37;;;;;;;2.53;2.33;;;20.90;88.70;;;;;;5033676;28;20202;-70
2023/06/06 05:31:03;;;;;;;8.23;2.63;;;20.90;88.90;;;;;;5031995;28;20164;-69
2023/06/06 05:33:30;;;;;;;1.73;1.63;;;21.30;86.20;;;;;;5033875;28;20772;-69
2023/06/06 05:35:56;;;;;;;3.10;2.17;;;21.60;84.60;;;;;;5033706;28;20214;-70
2023/06/06 05:38:23;;;;;;;5.33;1.97;;;21.40;84.60;;;;;;5028974;28;20417;-69
2023/06/06 05:40:48;;;;;;;2.83;2.13;;;22.00;84.40;;;;;;5027695;28;20492;-69
2023/06/06 05:43:16;;;;;;;3.93;2.10;;;22.50;82.10;;;;;;5034032;28;20501;-69
2023/06/06 05:45:41;;;;;;;4.33;2.10;;;23.00;79.30;;;;;;5033735;28;20266;-69
2023/06/06 05:48:07;;;;;;;3.30;3.00;;;22.50;79.70;;;;;;5033745;28;20489;-69
2023/06/06 05:50:33;;;;;;;3.93;2.30;;;22.50;80.30;;;;;;5033502;28;20256;-69
2023/06/06 05:52:59;;;;;;;3.57;2.50;;;22.30;81.40;;;;;;5033797;28;20908;-69
2023/06/06 05:55:32;;;;;;;7.83;2.97;;;23.20;79.50;;;;;;5029844;28;20179;-69
2023/06/06 05:57:59;;;;;;;6.60;2.77;;;23.40;77.30;;;;;;5033497;28;20815;-69
2023/06/06 06:00:27;;;;;;;4.90;3.17;;;23.70;75.30;;;;;;5033211;28;20452;-69
2023/06/06 06:02:55;;;;;;;3.57;3.10;;;23.70;75.30;;;;;;5033440;28;20414;-70
2023/06/06 06:05:22;;;;;;;3.03;2.73;;;24.10;75.20;;;;;;5026984;28;20427;-69
2023/06/06 06:07:49;;;;;;;3.47;2.10;;;24.40;72.50;;;;;;5033121;28;20493;-69
2023/06/06 06:10:16;;;;;;;2.87;2.47;;;24.60;71.50;;;;;;5034087;28;20406;-69
2023/06/06 06:12:42;;;;;;;3.50;2.60;;;24.40;73.20;;;;;;5033667;28;20411;-69
2023/06/06 06:15:09;;;;;;;5.93;2.40;;;25.40;70.50;;;;;;5030230;28;20867;-69
2023/06/06 06:17:35;;;;;;;3.33;2.07;;;26.00;66.70;;;;;;5046959;28;20471;-69
2023/06/06 06:20:06;;;;;;;2.97;2.20;;;25.10;66.90;;;;;;5032773;28;20878;-69
2023/06/06 06:22:32;;;;;;;4.80;2.17;;;25.20;67.20;;;;;;5033164;28;20532;-69
2023/06/06 06:24:57;;;;;;;4.03;2.10;;;25.70;65.20;;;;;;5032768;28;20434;-69
2023/06/06 06:27:23;;;;;;;2.67;2.47;;;25.40;66.50;;;;;;5032329;28;20207;-69
2023/06/06 06:29:50;;;;;;;3.17;2.87;;;25.90;66.60;;;;;;5032751;28;20225;-70
2023/06/06 06:32:17;;;;;;;6.13;2.33;;;26.30;63.50;;;;;;5032662;28;20245;-69
2023/06/06 06:34:43;;;;;;;3.57;2.70;;;26.80;62.30;;;;;;5032507;28;20516;-69
2023/06/06 06:37:08;;;;;;;3.40;2.10;;;27.40;61.10;;;;;;5032187;28;20425;-69
2023/06/06 06:39:34;;;;;;;2.60;2.37;;;26.90;61.00;;;;;;5026621;28;20717;-69
2023/06/06 06:42:00;;;;;;;3.57;2.87;;;27.30;60.00;;;;;;5032226;28;20250;-70
2023/06/06 06:44:25;;;;;;;3.47;2.50;;;27.30;60.70;;;;;;5032368;28;20536;-69
2023/06/06 06:46:51;;;;;;;8.83;3.50;;;26.70;60.30;;;;;;5032349;28;20283;-69
2023/06/06 06:49:16;;;;;;;6.53;2.57;;;27.40;59.60;;;;;;5031672;28;20171;-68
2023/06/06 06:51:42;;;;;;;2.90;2.60;;;28.60;57.40;;;;;;5032366;28;20217;-70
2023/06/06 06:54:15;;;;;;;3.10;2.80;;;28.90;56.40;;;;;;5032084;28;20728;-69
2023/06/06 06:56:41;;;;;;;2.63;2.20;;;28.30;56.80;;;;;;5032314;28;20285;-69
2023/06/06 06:59:08;;;;;;;2.40;2.20;;;27.60;57.70;;;;;;5031911;28;20409;-68
2023/06/06 07:01:37;;;;;;;8.80;2.87;;;27.30;58.60;;;;;;5032041;28;20186;-69
2023/06/06 07:04:06;;;;;;;6.80;3.13;;;26.50;59.60;;;;;;5032185;28;20449;-68
2023/06/06 07:06:33;;;;;;;12.73;2.90;;;26.20;60.00;;;;;;5032255;28;20450;-70
2023/06/06 07:09:00;;;;;;;3.90;2.07;;;25.80;60.50;;;;;;5032512;28;20457;-70
2023/06/06 07:11:26;;;;;;;2.60;2.40;;;25.30;62.20;;;;;;5032374;28;20398;-69
2023/06/06 07:13:52;;;;;;;2.70;2.33;;;25.00;62.60;;;;;;5032218;28;20406;-69
2023/06/06 07:16:18;;;;;;;5.10;2.17;;;24.60;63.50;;;;;;5031781;28;20421;-69
2023/06/06 07:18:47;;;;;;;7.00;2.90;;;24.20;64.50;;;;;;5030302;28;20183;-69
2023/06/06 07:21:12;;;;;;;5.70;2.20;;;24.00;65.10;;;;;;5031630;28;20426;-68
2023/06/06 07:23:39;;;;;;;8.10;2.80;;;23.80;65.70;;;;;;5025833;28;20422;-69
2023/06/06 07:26:06;;;;;;;10.10;2.60;;;23.50;66.60;;;;;;5031582;28;20177;-70
2023/06/06 07:28:33;;;;;;;4.93;2.83;;;23.30;67.80;;;;;;5031469;28;20517;-70
2023/06/06 07:30:59;;;;;;;6.23;2.60;;;23.20;68.20;;;;;;5030028;28;20524;-69
2023/06/06 07:33:25;;;;;;;6.30;3.40;;;23.30;68.10;;;;;;5031382;28;20413;-70
2023/06/06 07:35:50;;;;;;;3.30;2.40;;;23.20;69.20;;;;;;5031266;28;20500;-69
2023/06/06 07:38:16;;;;;;;2.73;2.33;;;23.20;69.50;;;;;;5031926;28;20170;-68
2023/06/06 07:40:41;;;;;;;4.90;3.43;;;23.30;70.10;;;;;;5031645;28;20172;-69
2023/06/06 07:43:07;;;;;;;5.90;3.20;;;23.70;69.80;;;;;;5022711;28;20640;-69
2023/06/06 07:45:33;;;;;;;4.00;2.53;;;23.90;69.40;;;;;;5027135;28;20201;-70
2023/06/06 07:47:58;;;;;;;3.07;2.80;;;24.10;68.50;;;;;;5031947;28;20198;-69
2023/06/06 07:50:25;;;;;;;6.90;3.43;;;24.20;67.80;;;;;;5032033;28;20179;-72
2023/06/06 07:52:51;;;;;;;3.73;2.90;;;24.40;68.10;;;;;;5031714;28;20172;-70
2023/06/06 07:55:20;;;;;;;6.20;3.07;;;24.10;68.20;;;;;;5031865;28;20489;-70
2023/06/06 07:57:46;;;;;;;4.23;3.30;;;24.30;68.20;;;;;;5029415;28;20183;-68
2023/06/06 08:00:15;;;;;;;5.17;3.43;;;24.20;67.70;;;;;;5033117;28;20414;-69
2023/06/06 08:02:41;;;;;;;7.20;2.90;;;23.80;69.20;;;;;;5035574;28;20188;-69
2023/06/06 08:05:07;;;;;;;6.50;3.00;;;23.90;69.10;;;;;;5033360;28;20445;-69
2023/06/06 08:07:39;;;;;;;3.43;2.80;;;24.10;68.80;;;;;;5035686;28;20204;-69
2023/06/06 08:10:08;;;;;;;4.70;2.93;;;24.20;68.50;;;;;;5035419;28;20408;-68
2023/06/06 08:12:34;;;;;;;5.80;3.23;;;23.90;69.80;;;;;;5035555;28;20878;-70
2023/06/06 08:15:00;;;;;;;4.90;2.47;;;24.00;69.60;;;;;;5035316;28;20447;-69
2023/06/06 08:17:26;;;;;;;5.23;3.00;;;24.20;68.90;;;;;;5035360;28;20406;-71
2023/06/06 08:19:52;;;;;;;7.30;3.17;;;24.00;70.00;;;;;;5035829;28;20210;-70
2023/06/06 08:22:17;;;;;;;3.50;2.90;;;24.40;69.30;;;;;;5035726;28;20166;-69
2023/06/06 08:24:43;;;;;;;3.60;2.70;;;24.50;68.60;;;;;;5035095;28;20246;-69
2023/06/06 08:27:10;;;;;;;6.30;3.03;;;24.80;67.40;;;;;;5035202;28;20206;-69
2023/06/06 08:29:36;;;;;;;4.93;2.60;;;24.40;68.20;;;;;;5035386;28;20658;-69
2023/06/06 08:32:03;;;;;;;4.70;3.60;;;24.70;67.50;;;;;;5035220;28;20909;-68
2023/06/06 08:34:28;;;;;;;3.57;2.93;;;24.70;68.00;;;;;;5035184;28;20443;-70
2023/06/06 08:36:54;;;;;;;5.53;3.10;;;24.80;65.70;;;;;;5035204;28;20407;-69
2023/06/06 08:39:21;;;;;;;7.30;3.23;;;25.00;66.70;;;;;;5036650;28;20803;-70
2023/06/06 08:41:55;;;;;;;4.03;2.27;;;25.20;66.00;;;;;;5037116;28;20581;-70
2023/06/06 08:44:22;;;;;;;3.67;2.60;;;24.90;66.90;;;;;;5033362;28;20448;-71
2023/06/06 08:46:53;;;;;;;3.20;2.63;;;24.70;66.40;;;;;;5035711;28;20402;-69
2023/06/06 08:49:20;;;;;;;2.90;2.43;;;24.70;66.40;;;;;;5030813;28;20403;-70
2023/06/06 08:51:50;;;;;;;3.90;2.73;;;24.60;67.50;;;;;;5034912;28;20891;-69
2023/06/06 08:54:18;;;;;;;4.30;2.97;;;24.50;67.60;;;;;;5028668;28;20451;-70
2023/06/06 08:56:44;;;;;;;3.63;3.00;;;24.40;67.20;;;;;;5024185;28;20414;-70
2023/06/06 08:59:10;;;;;;;5.20;3.13;;;24.40;67.30;;;;;;5034201;28;20415;-68
2023/06/06 09:01:38;;;;;;;4.83;3.40;;;24.60;68.20;;;;;;5026787;28;20668;-68
2023/06/06 09:04:06;;;;;;;5.17;3.17;;;24.60;68.10;;;;;;5034388;28;20436;-69
2023/06/06 09:06:34;;;;;;;3.80;2.67;;;24.80;67.20;;;;;;5034391;28;20421;-69
2023/06/06 09:09:01;;;;;;;4.13;3.37;;;24.70;67.90;;;;;;5034249;28;20457;-70
2023/06/06 09:11:27;;;;;;;4.93;4.43;;;24.90;66.20;;;;;;5028110;28;20406;-70
2023/06/06 09:13:53;;;;;;;4.40;3.00;;;24.90;66.50;;;;;;5025868;28;20928;-72
2023/06/06 09:16:18;;;;;;;5.63;2.90;;;24.70;67.50;;;;;;5034403;28;20457;-69
2023/06/06 09:18:48;;;;;;;6.33;2.73;;;25.30;65.50;;;;;;5034433;28;20223;-69
2023/06/06 09:21:13;;;;;;;4.83;3.70;;;25.50;65.10;;;;;;5034133;28;20181;-69
2023/06/06 09:23:39;;;;;;;3.33;2.83;;;25.80;63.40;;;;;;5027857;28;20412;-70
2023/06/06 09:26:18;;;;;;;6.60;3.23;;;26.10;62.00;;;;;;5033872;28;20171;-69
2023/06/06 09:28:44;;;;;;;6.10;3.90;;;26.00;63.30;;;;;;5030834;28;20457;-71
2023/06/06 09:31:30;;;;;;;7.43;4.13;;;26.30;62.40;;;;;;5034215;28;20413;-70
2023/06/06 09:33:57;;;;;;;4.93;3.60;;;26.50;61.20;;;;;;5027356;28;20166;-70
2023/06/06 09:36:26;;;;;;;3.37;3.07;;;26.60;60.90;;;;;;5033827;28;20414;-71
2023/06/06 09:38:53;;;;;;;11.93;3.90;;;26.00;62.60;;;;;;5031393;28;20748;-70
2023/06/06 09:41:19;;;;;;;5.00;3.40;;;25.10;65.60;;;;;;5033781;28;20424;-70
2023/06/06 09:43:45;;;;;;;4.50;2.77;;;25.70;65.10;;;;;;5033545;28;20402;-70
2023/06/06 09:46:15;;;;;;;5.60;3.37;;;26.10;63.00;;;;;;5033332;28;20210;-69
2023/06/06 09:48:41;;;;;;;4.07;3.20;;;26.10;63.70;;;;;;5033203;28;20198;-69
2023/06/06 09:51:12;;;;;;;5.53;3.20;;;26.20;62.10;;;;;;5033165;28;20423;-70
2023/06/06 09:53:37;;;;;;;7.53;3.77;;;25.80;62.90;;;;;;5033749;28;20544;-69
2023/06/06 09:56:04;;;;;;;6.37;3.53;;;26.00;64.10;;;;;;5029671;28;20425;-69
2023/06/06 09:58:34;;;;;;;5.80;2.77;;;26.60;62.70;;;;;;5032152;28;20529;-69
2023/06/06 10:01:01;;;;;;;7.17;4.43;;;26.60;62.20;;;;;;5031118;28;20429;-69
2023/06/06 10:03:30;;;;;;;4.17;3.03;;;26.30;63.40;;;;;;5031122;28;20420;-68
2023/06/06 10:05:56;;;;;;;2.93;2.73;;;26.40;63.90;;;;;;5027126;28;20818;-69
2023/06/06 10:08:23;;;;;;;3.20;2.90;;;26.60;63.80;;;;;;5030517;28;20458;-68
2023/06/06 10:10:50;;;;;;;3.80;3.50;;;26.30;62.70;;;;;;5033993;28;20474;-69
2023/06/06 10:13:17;;;;;;;4.90;3.43;;;26.20;64.30;;;;;;5034023;28;20586;-69
2023/06/06 10:15:44;;;;;;;3.50;2.80;;;26.50;63.90;;;;;;5034582;28;20436;-70
2023/06/06 10:18:09;;;;;;;5.20;2.80;;;26.50;65.90;;;;;;5034517;28;20597;-70
2023/06/06 10:20:36;;;;;;;13.73;4.83;;;26.00;65.80;;;;;;5030064;28;20426;-69
2023/06/06 10:23:02;;;;;;;3.50;3.20;;;26.20;66.10;;;;;;5032713;28;20314;-73
2023/06/06 10:25:29;;;;;;;5.77;3.90;;;26.20;65.90;;;;;;5032309;28;20431;-70
2023/06/06 10:28:21;;;;;;;4.30;3.90;;;26.50;65.30;;;;;;5032654;28;20503;-70
2023/06/06 10:31:16;;;;;;;4.43;3.27;;;25.80;68.20;;;;;;5022751;28;20415;-70
2023/06/06 10:33:49;;;;;;;4.17;3.87;;;26.20;67.10;;;;;;5032279;28;20404;-69
2023/06/06 10:36:18;;;;;;;5.57;3.10;;;25.90;67.50;;;;;;5032202;28;20413;-70
2023/06/06 10:39:22;;;;;;;6.70;3.30;;;26.10;66.50;;;;;;5030745;28;20415;-70
2023/06/06 10:42:05;;;;;;;7.73;5.27;;;25.50;69.10;;;;;;5027364;28;20417;-69
2023/06/06 10:44:35;;;;;;;5.53;4.00;;;26.00;68.90;;;;;;5027686;28;20494;-70
2023/06/06 10:47:28;;;;;;;3.27;2.87;;;26.10;68.60;;;;;;5032029;28;20412;-71
2023/06/06 10:50:11;;;;;;;7.80;3.50;;;26.20;68.10;;;;;;5025747;28;20413;-70
2023/06/06 10:52:41;;;;;;;5.57;3.60;;;26.40;67.00;;;;;;5031567;28;20409;-71
2023/06/06 10:55:36;;;;;;;3.13;2.83;;;26.30;67.70;;;;;;5032122;28;20434;-69
2023/06/06 10:58:14;;;;;;;3.60;3.10;;;26.30;69.60;;;;;;5057582;22;20487;-70
2023/06/06 11:00:44;;;;;;;3.47;3.17;;;26.40;69.70;;;;;;5064639;28;20415;-70
2023/06/06 11:03:15;;;;;;;4.20;3.30;;;27.00;69.10;;;;;;5066734;28;20464;-69
2023/06/06 11:06:00;;;;;;;4.90;3.33;;;27.50;63.60;;;;;;5065902;28;20404;-68
2023/06/06 11:08:53;;;;;;;3.83;3.13;;;27.30;64.30;;;;;;5056596;28;20467;-70
2023/06/06 11:11:23;;;;;;;3.33;3.03;;;27.00;64.70;;;;;;5043964;28;20942;-68
2023/06/06 11:14:00;;;;;;;4.10;2.90;;;26.60;66.60;;;;;;5049258;28;20396;-69
2023/06/06 11:16:46;;;;;;;5.80;3.10;;;27.10;63.20;;;;;;5051276;28;20416;-70
2023/06/06 11:19:17;;;;;;;6.13;3.63;;;26.60;64.50;;;;;;5040929;28;20497;-71
2023/06/06 11:21:44;;;;;;;3.07;2.87;;;26.70;63.60;;;;;;5049469;28;20416;-69
2023/06/06 11:24:10;;;;;;;6.50;3.13;;;26.30;63.40;;;;;;5046885;28;20408;-69
2023/06/06 11:26:38;;;;;;;4.37;3.10;;;26.60;64.20;;;;;;5048928;28;20432;-69
2023/06/06 11:29:05;;;;;;;4.20;3.13;;;26.20;66.30;;;;;;5046074;28;20642;-72
2023/06/06 11:31:32;;;;;;;3.07;2.40;;;26.00;65.50;;;;;;5050561;28;20502;-70
2023/06/06 11:34:08;;;;;;;4.53;3.73;;;26.40;64.10;;;;;;5050970;28;20498;-68
2023/06/06 11:36:36;;;;;;;3.80;3.50;;;26.20;65.20;;;;;;5044701;28;20430;-70
2023/06/06 11:39:04;;;;;;;9.10;3.37;;;26.10;66.00;;;;;;5051405;28;20446;-70
2023/06/06 11:41:30;;;;;;;3.40;3.10;;;26.10;64.80;;;;;;5045163;28;20423;-69
2023/06/06 11:43:56;;;;;;;5.30;3.43;;;25.70;65.00;;;;;;5050532;28;20420;-68
2023/06/06 11:46:22;;;;;;;3.20;2.67;;;26.10;65.20;;;;;;5053999;28;21202;-68
2023/06/06 11:48:59;;;;;;;3.63;2.60;;;26.00;65.30;;;;;;5049550;28;20692;-68
2023/06/06 11:51:25;;;;;;;5.93;3.63;;;26.10;64.90;;;;;;5048207;28;20179;-71
2023/06/06 11:53:51;;;;;;;5.47;3.73;;;26.50;62.90;;;;;;5044246;28;20416;-70
2023/06/06 11:56:17;;;;;;;3.90;2.90;;;26.70;63.10;;;;;;5050898;28;20890;-67
2023/06/06 11:58:43;;;;;;;4.40;3.30;;;26.60;62.90;;;;;;5047787;28;20209;-68
2023/06/06 12:01:10;;;;;;;8.43;2.70;;;26.60;62.50;;;;;;5045562;28;20421;-70
2023/06/06 12:03:38;;;;;;;5.47;3.10;;;26.60;62.40;;;;;;5048675;28;20188;-68
2023/06/06 12:06:06;;;;;;;3.23;3.00;;;26.40;64.20;;;;;;5047840;28;20416;-68
2023/06/06 12:08:35;;;;;;;3.50;2.93;;;25.80;63.90;;;;;;5048921;28;20476;-69
2023/06/06 12:11:24;;;;;;;3.70;2.77;;;25.90;63.60;;;;;;5043430;28;20428;-70
2023/06/06 12:13:50;;;;;;;4.10;2.90;;;26.30;62.50;;;;;;5043749;28;20824;-68
2023/06/06 12:16:21;;;;;;;3.20;2.90;;;26.20;62.80;;;;;;5052360;28;20879;-69
2023/06/06 12:18:48;;;;;;;4.13;3.10;;;26.20;63.10;;;;;;5038861;28;20500;-68
2023/06/06 12:21:17;;;;;;;3.50;2.93;;;26.30;61.60;;;;;;5039815;28;20419;-69
2023/06/06 12:23:44;;;;;;;3.30;3.00;;;26.20;61.70;;;;;;5049240;28;20409;-69
2023/06/06 12:26:15;;;;;;;4.10;3.07;;;25.70;62.40;;;;;;5045520;28;20423;-71
2023/06/06 12:28:59;;;;;;;3.20;2.90;;;25.80;62.20;;;;;;5047540;28;20468;-69
2023/06/06 12:31:26;;;;;;;4.07;3.20;;;26.00;62.30;;;;;;5042416;28;20443;-68
2023/06/06 12:33:53;;;;;;;3.20;2.70;;;26.10;61.40;;;;;;5047561;28;20423;-71
2023/06/06 12:36:21;;;;;;;4.73;3.53;;;26.10;61.00;;;;;;5046861;28;20413;-71
2023/06/06 12:38:56;;;;;;;4.90;3.50;;;25.80;62.80;;;;;;5045819;28;20468;-69
2023/06/06 12:41:22;;;;;;;3.80;2.77;;;25.70;63.70;;;;;;5041398;28;20573;-67
2023/06/06 12:43:47;;;;;;;8.07;3.43;;;25.40;64.80;;;;;;5045043;28;20495;-68
2023/06/06 12:46:13;;;;;;;3.87;3.20;;;25.30;65.30;;;;;;5046903;28;20186;-70
2023/06/06 12:48:39;;;;;;;3.40;3.17;;;25.20;64.80;;;;;;5053625;28;20225;-68
2023/06/06 12:51:10;;;;;;;3.73;3.30;;;25.60;63.00;;;;;;5044871;28;20206;-68